createdAt,value
2024-02-08T00:01:11.658Z,29.67
2024-02-08T00:03:40.716Z,28.90
2024-02-08T00:06:08.983Z,30.09
2024-02-08T00:08:38.329Z,29.24
2024-02-08T00:11:08.112Z,29.32
2024-02-08T00:13:38.454Z,29.63
2024-02-08T00:16:12.813Z,29.61
2024-02-08T00:18:41.572Z,29.09
2024-02-08T00:21:10.862Z,29.20
2024-02-08T00:23:39.430Z,29.49
2024-02-08T00:26:07.572Z,29.19
2024-02-08T00:28:35.757Z,28.86
2024-02-08T00:31:07.712Z,29.44
2024-02-08T00:33:39.994Z,29.64
2024-02-08T00:36:12.865Z,28.85
2024-02-08T00:38:41.352Z,29.46
2024-02-08T00:41:10.605Z,29.56
2024-02-08T00:43:40.345Z,29.00
2024-02-08T00:46:08.529Z,28.88
2024-02-08T00:48:38.035Z,29.45
2024-02-08T00:51:08.361Z,29.15
2024-02-08T00:53:36.520Z,28.71
2024-02-08T00:56:04.950Z,28.94
2024-02-08T00:58:34.493Z,28.94
2024-02-08T01:01:05.316Z,28.92
2024-02-08T01:03:34.726Z,29.07
2024-02-08T01:06:06.175Z,29.47
2024-02-08T01:08:34.972Z,29.07
2024-02-08T01:11:03.198Z,29.12
2024-02-08T01:13:33.117Z,29.05
2024-02-08T01:16:01.490Z,29.51
2024-02-08T01:18:29.986Z,29.22
2024-02-08T01:20:58.098Z,28.96
2024-02-08T01:23:29.407Z,28.93
2024-02-08T01:25:57.626Z,29.53
2024-02-08T01:28:26.677Z,28.59
2024-02-08T01:30:54.914Z,29.06
2024-02-08T01:33:22.946Z,29.11
2024-02-08T01:35:53.565Z,28.82
2024-02-08T01:38:22.752Z,28.66
2024-02-08T01:40:52.293Z,28.89
2024-02-08T01:43:20.549Z,28.51
2024-02-08T01:45:50.829Z,28.23
2024-02-08T01:48:19.697Z,28.63
2024-02-08T01:50:52.397Z,28.00
2024-02-08T01:53:29.385Z,28.40
2024-02-08T01:56:02.441Z,28.30
2024-02-08T01:58:33.344Z,28.84
2024-02-08T02:01:14.887Z,28.59
2024-02-08T02:03:43.207Z,28.18
2024-02-08T02:06:15.813Z,28.02
2024-02-08T02:08:54.755Z,28.52
2024-02-08T02:11:31.698Z,28.41
2024-02-08T02:14:00.803Z,27.45
2024-02-08T02:16:29.534Z,28.85
2024-02-08T02:18:58.459Z,28.17
2024-02-08T02:21:28.536Z,27.76
2024-02-08T02:23:58.575Z,28.29
2024-02-08T02:26:27.789Z,27.83
2024-02-08T02:28:57.070Z,27.63
2024-02-08T02:31:28.519Z,28.39
2024-02-08T02:33:58.727Z,28.07
2024-02-08T02:36:28.599Z,27.58
2024-02-08T02:38:57.880Z,27.71
2024-02-08T02:41:29.216Z,28.00
2024-02-08T02:43:57.501Z,27.59
2024-02-08T02:46:25.768Z,28.20
2024-02-08T02:48:54.021Z,27.65
2024-02-08T02:51:28.279Z,27.41
2024-02-08T02:54:00.157Z,27.40
2024-02-08T02:56:33.235Z,28.41
2024-02-08T02:59:05.030Z,27.00
2024-02-08T03:01:40.264Z,28.10
2024-02-08T03:04:12.242Z,27.58
2024-02-08T03:06:44.428Z,27.59
2024-02-08T03:09:17.478Z,27.28
2024-02-08T03:11:46.323Z,27.62
2024-02-08T03:14:16.672Z,27.79
2024-02-08T03:16:47.166Z,27.32
2024-02-08T03:19:17.749Z,27.63
2024-02-08T03:21:47.006Z,27.54
2024-02-08T03:24:16.563Z,27.19
2024-02-08T03:26:48.744Z,27.38
2024-02-08T03:29:18.816Z,27.46
2024-02-08T03:31:49.302Z,27.37
2024-02-08T03:34:21.463Z,27.64
2024-02-08T03:36:52.458Z,27.81
2024-02-08T03:39:27.629Z,27.67
2024-02-08T03:42:01.098Z,27.79
2024-02-08T03:44:32.556Z,28.12
2024-02-08T03:47:06.389Z,28.04
2024-02-08T03:49:35.218Z,27.52
2024-02-08T03:52:03.428Z,28.39
2024-02-08T03:54:34.369Z,27.62
2024-02-08T03:57:07.205Z,28.46
2024-02-08T03:59:36.071Z,27.79
2024-02-08T04:02:06.724Z,27.70
2024-02-08T04:04:51.139Z,28.52
2024-02-08T04:07:23.618Z,28.21
2024-02-08T04:09:57.974Z,28.11
2024-02-08T04:12:44.542Z,28.40
2024-02-08T04:15:33.872Z,28.72
2024-02-08T04:18:20.300Z,28.94
2024-02-08T04:21:06.004Z,28.38
2024-02-08T04:23:52.246Z,28.57
2024-02-08T04:26:39.000Z,28.14
2024-02-08T04:29:25.447Z,28.97
2024-02-08T04:32:11.300Z,28.37
2024-02-08T04:34:58.822Z,29.07
2024-02-08T04:37:44.588Z,29.00
2024-02-08T04:40:36.307Z,28.62
2024-02-08T04:43:23.925Z,29.01
2024-02-08T04:46:09.478Z,29.07
2024-02-08T04:48:56.826Z,29.01
2024-02-08T04:51:44.263Z,30.05
2024-02-08T04:54:12.493Z,30.48
2024-02-08T04:56:40.789Z,30.03
2024-02-08T04:59:21.619Z,31.25
2024-02-08T05:01:54.536Z,31.31
2024-02-08T05:04:23.361Z,31.86
2024-02-08T05:06:52.409Z,31.89
2024-02-08T05:09:21.607Z,32.33
2024-02-08T05:11:51.275Z,32.12
2024-02-08T05:14:24.108Z,32.13
2024-02-08T05:16:56.134Z,31.81
2024-02-08T05:19:27.370Z,31.89
2024-02-08T05:22:01.006Z,32.29
2024-02-08T05:24:32.402Z,31.55
2024-02-08T05:27:01.361Z,31.29
2024-02-08T05:29:33.340Z,31.42
2024-02-08T05:32:02.716Z,31.49
2024-02-08T05:34:31.343Z,31.78
2024-02-08T05:37:03.156Z,31.31
2024-02-08T05:39:32.791Z,31.91
2024-02-08T05:42:02.003Z,31.37
2024-02-08T05:44:56.673Z,31.42
2024-02-08T05:47:27.640Z,31.20
2024-02-08T05:49:57.418Z,31.00
2024-02-08T05:52:33.767Z,30.98
2024-02-08T05:55:12.413Z,30.88
2024-02-08T05:58:00.284Z,30.88
2024-02-08T06:00:37.523Z,30.75
2024-02-08T06:03:07.183Z,30.85
2024-02-08T06:05:37.463Z,30.69
2024-02-08T06:08:26.393Z,30.66
2024-02-08T06:10:54.832Z,30.75
2024-02-08T06:13:27.635Z,31.13
2024-02-08T06:16:09.592Z,30.90
2024-02-08T06:18:39.334Z,30.51
2024-02-08T06:21:15.050Z,30.76
2024-02-08T06:23:46.599Z,30.24
2024-02-08T06:26:29.391Z,30.14
2024-02-08T06:29:06.831Z,30.18
2024-02-08T06:31:42.603Z,30.54
2024-02-08T06:34:29.367Z,30.09
2024-02-08T06:37:17.751Z,30.13
2024-02-08T06:39:57.472Z,29.78
2024-02-08T06:42:48.576Z,30.00
2024-02-08T06:45:46.236Z,30.47
2024-02-08T06:48:43.656Z,29.67
2024-02-08T06:51:29.331Z,29.27
2024-02-08T06:54:14.799Z,29.45
2024-02-08T06:57:00.279Z,29.40
2024-02-08T06:59:48.469Z,29.15
2024-02-08T07:02:34.308Z,29.49
2024-02-08T07:05:21.434Z,29.15
2024-02-08T07:08:13.210Z,28.98
2024-02-08T07:10:59.097Z,28.97
2024-02-08T07:13:44.664Z,28.60
2024-02-08T07:16:31.268Z,28.60
2024-02-08T07:19:17.243Z,28.46
2024-02-08T07:22:04.684Z,28.32
2024-02-08T07:24:50.157Z,28.24
2024-02-08T07:27:35.616Z,28.24
2024-02-08T07:30:20.878Z,28.08
2024-02-08T07:33:06.624Z,27.98
2024-02-08T07:35:53.260Z,27.87
2024-02-08T07:38:43.781Z,27.66
2024-02-08T07:41:13.648Z,27.67
2024-02-08T07:43:45.248Z,27.61
2024-02-08T07:46:18.057Z,27.50
2024-02-08T07:48:46.772Z,27.52
2024-02-08T07:51:17.510Z,27.49
2024-02-08T07:53:53.275Z,27.27
2024-02-08T07:56:38.741Z,27.20
2024-02-08T07:59:17.131Z,27.04
2024-02-08T08:01:51.487Z,27.13
2024-02-08T08:04:34.684Z,26.46
2024-02-08T08:07:03.298Z,26.44
2024-02-08T08:09:37.718Z,26.56
2024-02-08T08:12:07.729Z,26.20
2024-02-08T08:14:57.996Z,26.53
2024-02-08T08:17:42.107Z,26.22
2024-02-08T08:20:38.529Z,26.04
2024-02-08T08:23:26.883Z,26.26
2024-02-08T08:26:23.747Z,25.78
2024-02-08T08:28:54.111Z,25.40
2024-02-08T08:31:37.427Z,25.79
2024-02-08T08:34:24.000Z,25.16
2024-02-08T08:37:00.015Z,25.79
2024-02-08T08:39:46.368Z,25.35
2024-02-08T08:42:19.176Z,24.94
2024-02-08T08:44:52.989Z,25.17
2024-02-08T08:47:25.906Z,25.10
2024-02-08T08:49:54.756Z,25.22
2024-02-08T08:52:25.948Z,24.97
2024-02-08T08:55:12.736Z,24.89
2024-02-08T08:57:42.428Z,25.14
2024-02-08T09:00:12.784Z,24.56
2024-02-08T09:02:43.713Z,24.51
2024-02-08T09:05:19.192Z,24.60
2024-02-08T09:07:48.726Z,24.89
2024-02-08T09:10:19.021Z,24.66
2024-02-08T09:12:59.856Z,24.29
2024-02-08T09:15:42.381Z,24.23
2024-02-08T09:18:11.354Z,24.30
2024-02-08T09:20:39.824Z,24.18
2024-02-08T09:23:15.509Z,24.32
2024-02-08T09:25:47.155Z,24.37
2024-02-08T09:28:28.669Z,24.15
2024-02-08T09:30:59.401Z,24.07
2024-02-08T09:33:45.586Z,23.79
2024-02-08T09:36:16.069Z,23.65
2024-02-08T09:38:47.116Z,24.06
2024-02-08T09:41:25.699Z,23.74
2024-02-08T09:43:59.308Z,23.98
2024-02-08T09:46:47.317Z,24.14
2024-02-08T09:49:18.570Z,23.87
2024-02-08T09:51:54.697Z,23.72
2024-02-08T09:54:30.432Z,23.90
2024-02-08T09:57:04.013Z,23.54
2024-02-08T09:59:53.338Z,23.60
2024-02-08T10:02:34.178Z,23.84
2024-02-08T10:05:21.131Z,23.81
2024-02-08T10:08:06.920Z,23.65
2024-02-08T10:10:45.499Z,23.87
2024-02-08T10:13:28.835Z,23.66
2024-02-08T10:16:13.898Z,23.90
2024-02-08T10:18:43.300Z,23.65
2024-02-08T10:21:14.917Z,24.00
2024-02-08T10:23:49.914Z,24.27
2024-02-08T10:26:28.742Z,23.60
2024-02-08T10:28:56.724Z,23.72
2024-02-08T10:31:26.868Z,23.80
2024-02-08T10:34:11.190Z,24.03
2024-02-08T10:36:46.340Z,24.44
2024-02-08T10:39:26.693Z,24.12
2024-02-08T10:42:02.973Z,23.60
2024-02-08T10:44:34.930Z,23.88
2024-02-08T10:47:09.249Z,24.21
2024-02-08T10:49:46.534Z,23.80
2024-02-08T10:52:18.028Z,23.97
2024-02-08T10:54:53.968Z,24.49
2024-02-08T10:57:58.506Z,24.70
2024-02-08T11:00:45.069Z,23.88
2024-02-08T11:03:29.596Z,24.41
2024-02-08T11:06:04.802Z,24.10
2024-02-08T11:08:51.445Z,24.57
2024-02-08T11:11:22.478Z,24.76
2024-02-08T11:13:55.114Z,24.24
2024-02-08T11:16:29.268Z,24.06
2024-02-08T11:19:01.904Z,24.01
2024-02-08T11:21:45.265Z,24.21
2024-02-08T11:24:29.375Z,24.24
2024-02-08T11:27:03.742Z,24.61
2024-02-08T11:29:46.778Z,24.34
2024-02-08T11:32:18.446Z,24.18
2024-02-08T11:34:56.056Z,25.04
2024-02-08T11:37:32.238Z,24.45
2024-02-08T11:40:03.247Z,24.95
2024-02-08T11:42:38.540Z,24.55
2024-02-08T11:45:11.240Z,24.51
2024-02-08T11:47:43.357Z,24.83
2024-02-08T11:50:24.635Z,24.55
2024-02-08T11:53:00.547Z,24.69
2024-02-08T11:55:33.672Z,24.73
2024-02-08T11:58:07.230Z,24.73
2024-02-08T12:00:46.792Z,24.60
2024-02-08T12:03:19.096Z,25.14
2024-02-08T12:05:57.126Z,24.51
2024-02-08T12:08:36.760Z,25.07
2024-02-08T12:11:09.406Z,24.59
2024-02-08T12:13:41.393Z,25.01
2024-02-08T12:16:12.661Z,24.70
2024-02-08T12:18:41.668Z,25.15
2024-02-08T12:21:19.004Z,24.88
2024-02-08T12:23:54.461Z,24.85
2024-02-08T12:26:26.497Z,25.30
2024-02-08T12:28:58.294Z,25.26
2024-02-08T12:31:31.088Z,24.81
2024-02-08T12:34:04.897Z,25.80
2024-02-08T12:36:36.652Z,25.16
2024-02-08T12:39:19.106Z,25.07
2024-02-08T12:41:50.556Z,25.40
2024-02-08T12:44:22.099Z,25.49
2024-02-08T12:46:56.166Z,25.41
2024-02-08T12:49:26.341Z,25.61
2024-02-08T12:52:00.754Z,25.13
2024-02-08T12:54:29.752Z,25.43
2024-02-08T12:57:09.283Z,25.26
2024-02-08T12:59:38.573Z,25.31
2024-02-08T13:02:11.339Z,25.52
2024-02-08T13:04:45.665Z,25.24
2024-02-08T13:07:19.204Z,25.21
2024-02-08T13:09:48.836Z,25.32
2024-02-08T13:12:20.436Z,25.67
2024-02-08T13:15:04.094Z,25.40
2024-02-08T13:17:35.371Z,25.38
2024-02-08T13:20:13.815Z,25.78
2024-02-08T13:22:46.979Z,25.70
2024-02-08T13:25:17.568Z,25.62
2024-02-08T13:27:47.301Z,25.86
2024-02-08T13:30:18.783Z,25.55
2024-02-08T13:32:50.765Z,25.72
2024-02-08T13:35:20.634Z,25.81
2024-02-08T13:37:54.249Z,25.68
2024-02-08T13:40:24.166Z,25.89
2024-02-08T13:42:57.348Z,26.04
2024-02-08T13:45:29.421Z,25.78
2024-02-08T13:48:00.100Z,25.85
2024-02-08T13:50:32.778Z,26.07
2024-02-08T13:53:05.800Z,25.92
2024-02-08T13:58:08.533Z,26.02
2024-02-08T14:00:37.634Z,25.89
2024-02-08T14:03:09.511Z,26.31
2024-02-08T14:05:40.940Z,25.86
2024-02-08T14:08:18.715Z,26.02
2024-02-08T14:10:48.755Z,26.03
2024-02-08T14:13:30.605Z,26.21
2024-02-08T14:16:02.235Z,26.11
2024-02-08T14:18:34.317Z,26.26
2024-02-08T14:21:04.585Z,26.40
2024-02-08T14:23:39.294Z,26.21
2024-02-08T14:26:32.738Z,26.70
2024-02-08T14:29:05.794Z,26.37
2024-02-08T14:31:38.915Z,26.66
2024-02-08T14:34:10.938Z,26.44
2024-02-08T14:36:48.769Z,26.15
2024-02-08T14:39:34.232Z,26.41
2024-02-08T14:42:03.131Z,26.49
2024-02-08T14:44:42.362Z,26.65
2024-02-08T14:47:16.861Z,26.54
2024-02-08T14:49:57.981Z,26.47
2024-02-08T14:52:30.322Z,26.71
2024-02-08T14:55:11.760Z,26.82
2024-02-08T14:57:43.404Z,26.74
2024-02-08T15:00:29.977Z,26.78
2024-02-08T15:03:04.310Z,26.74
2024-02-08T15:05:49.260Z,26.96
2024-02-08T15:08:47.277Z,26.82
2024-02-08T15:11:39.916Z,26.82
2024-02-08T15:14:08.482Z,26.87
2024-02-08T15:16:38.529Z,26.77
2024-02-08T15:19:07.827Z,26.85
2024-02-08T15:21:37.661Z,26.89
2024-02-08T15:24:21.400Z,27.04
2024-02-08T15:27:05.817Z,26.61
2024-02-08T15:29:44.007Z,27.30
2024-02-08T15:32:19.030Z,26.96
2024-02-08T15:35:06.352Z,27.16
2024-02-08T15:37:43.138Z,26.93
2024-02-08T15:40:14.308Z,27.28
2024-02-08T15:42:45.032Z,27.15
2024-02-08T15:45:14.756Z,27.45
2024-02-08T15:47:59.216Z,26.88
2024-02-08T15:50:34.187Z,26.88
2024-02-08T15:53:10.407Z,27.17
2024-02-08T15:55:44.065Z,26.88
2024-02-08T15:58:29.393Z,26.96
2024-02-08T16:01:17.306Z,26.94
2024-02-08T16:03:56.742Z,26.85
2024-02-08T16:06:45.976Z,26.99
2024-02-08T16:09:27.436Z,27.13
2024-02-08T16:12:01.609Z,26.96
2024-02-08T16:14:43.437Z,27.11
2024-02-08T16:17:38.634Z,26.77
2024-02-08T16:20:24.650Z,27.03
2024-02-08T16:23:04.057Z,26.82
2024-02-08T16:25:45.978Z,26.91
2024-02-08T16:28:19.323Z,26.54
2024-02-08T16:31:11.810Z,27.23
2024-02-08T16:33:50.328Z,27.01
2024-02-08T16:36:45.717Z,26.66
2024-02-08T16:39:34.712Z,26.92
2024-02-08T16:42:03.147Z,27.18
2024-02-08T16:44:36.432Z,27.11
2024-02-08T16:47:23.940Z,27.10
2024-02-08T16:49:52.053Z,27.03
2024-02-08T16:52:23.324Z,26.99
2024-02-08T16:55:01.389Z,26.97
2024-02-08T16:57:33.252Z,26.93
2024-02-08T17:00:22.589Z,27.38
2024-02-08T17:03:05.491Z,27.49
2024-02-08T17:05:50.725Z,27.37
2024-02-08T17:08:22.129Z,27.58
2024-02-08T17:10:57.247Z,27.53
2024-02-08T17:13:38.414Z,27.29
2024-02-08T17:16:26.437Z,27.26
2024-02-08T17:19:23.327Z,28.09
2024-02-08T17:22:09.550Z,27.80
2024-02-08T17:24:47.788Z,27.95
2024-02-08T17:27:39.187Z,27.83
2024-02-08T17:30:18.198Z,28.16
2024-02-08T17:32:46.661Z,27.93
2024-02-08T17:35:17.689Z,28.03
2024-02-08T17:37:49.900Z,27.90
2024-02-08T17:40:21.491Z,28.04
2024-02-08T17:42:51.318Z,28.07
2024-02-08T17:45:21.543Z,28.47
2024-02-08T17:47:50.681Z,28.26
2024-02-08T17:50:31.049Z,27.89
2024-02-08T17:53:01.048Z,28.20
2024-02-08T17:55:37.494Z,28.38
2024-02-08T17:58:14.125Z,28.30
2024-02-08T18:00:49.629Z,28.24
2024-02-08T18:03:27.127Z,28.36
2024-02-08T18:05:58.247Z,28.38
2024-02-08T18:08:27.302Z,28.31
2024-02-08T18:10:55.771Z,28.49
2024-02-08T18:13:27.631Z,28.44
2024-02-08T18:15:58.702Z,28.50
2024-02-08T18:18:27.452Z,28.44
2024-02-08T18:20:59.518Z,28.66
2024-02-08T18:23:34.132Z,30.07
2024-02-08T18:26:05.242Z,30.63
2024-02-08T18:28:33.877Z,32.09
2024-02-08T18:31:07.268Z,32.94
2024-02-08T18:33:36.555Z,32.53
2024-02-08T18:36:09.301Z,33.93
2024-02-08T18:38:39.525Z,34.33
2024-02-08T18:41:08.380Z,34.19
2024-02-08T18:43:36.672Z,33.95
2024-02-08T18:46:07.385Z,33.95
2024-02-08T18:48:42.383Z,33.45
2024-02-08T18:51:17.191Z,32.95
2024-02-08T18:53:46.285Z,32.92
2024-02-08T18:56:20.503Z,31.97
2024-02-08T18:58:53.412Z,32.06
2024-02-08T19:01:26.539Z,31.88
2024-02-08T19:03:56.004Z,31.51
2024-02-08T19:06:27.705Z,31.46
2024-02-08T19:08:56.807Z,31.56
2024-02-08T19:11:25.031Z,31.64
2024-02-08T19:13:53.663Z,31.47
2024-02-08T19:16:29.155Z,31.30
2024-02-08T19:19:02.320Z,30.85
2024-02-08T19:21:39.130Z,31.11
2024-02-08T19:24:08.728Z,30.82
2024-02-08T19:26:37.152Z,30.81
2024-02-08T19:29:07.579Z,30.61
2024-02-08T19:31:43.360Z,31.34
2024-02-08T19:34:19.170Z,30.44
2024-02-08T19:36:54.297Z,30.09
2024-02-08T19:39:40.568Z,30.64
2024-02-08T19:42:19.702Z,30.49
2024-02-08T19:44:54.503Z,29.92
2024-02-08T19:47:28.446Z,30.52
2024-02-08T19:50:05.042Z,29.90
2024-02-08T19:52:41.671Z,29.72
2024-02-08T19:55:22.849Z,30.25
2024-02-08T19:57:54.402Z,30.28
2024-02-08T20:00:29.912Z,29.89
2024-02-08T20:03:01.440Z,30.39
2024-02-08T20:05:36.600Z,29.85
2024-02-08T20:08:11.329Z,30.28
2024-02-08T20:10:41.908Z,30.49
2024-02-08T20:13:16.192Z,30.19
2024-02-08T20:15:45.387Z,30.24
2024-02-08T20:18:18.869Z,29.66
2024-02-08T20:20:48.988Z,30.25
2024-02-08T20:23:23.353Z,29.34
2024-02-08T20:25:55.742Z,30.29
2024-02-08T20:28:24.828Z,29.66
2024-02-08T20:30:55.612Z,30.14
2024-02-08T20:33:24.562Z,29.55
2024-02-08T20:35:56.982Z,29.40
2024-02-08T20:38:28.193Z,29.14
2024-02-08T20:40:57.412Z,29.29
2024-02-08T20:43:28.080Z,29.02
2024-02-08T20:45:58.669Z,29.65
2024-02-08T20:48:27.025Z,29.69
2024-02-08T20:50:56.817Z,29.93
2024-02-08T20:53:28.456Z,29.71
2024-02-08T20:55:57.820Z,29.84
2024-02-08T20:58:26.235Z,29.37
2024-02-08T21:00:56.529Z,29.60
2024-02-08T21:03:28.094Z,29.45
2024-02-08T21:05:59.520Z,28.88
2024-02-08T21:08:30.456Z,28.77
2024-02-08T21:11:00.110Z,29.18
2024-02-08T21:13:33.405Z,29.50
2024-02-08T21:16:01.842Z,29.58
2024-02-08T21:18:30.727Z,29.07
2024-02-08T21:20:59.992Z,29.06
2024-02-08T21:23:28.258Z,28.90
2024-02-08T21:26:23.144Z,29.09
2024-02-08T21:28:55.663Z,28.28
2024-02-08T21:34:25.833Z,28.23
2024-02-08T21:36:55.051Z,29.11
2024-02-08T21:39:33.147Z,28.56
2024-02-08T21:42:07.528Z,28.34
2024-02-08T21:44:39.681Z,28.86
2024-02-08T21:47:08.119Z,28.59
2024-02-08T21:49:36.378Z,28.43
2024-02-08T21:52:08.806Z,28.63
2024-02-08T21:54:39.314Z,28.07
2024-02-08T21:57:09.295Z,27.93
2024-02-08T21:59:38.036Z,28.37
2024-02-08T22:02:09.428Z,28.53
2024-02-08T22:04:39.078Z,28.28
2024-02-08T22:07:07.900Z,28.22
2024-02-08T22:09:36.864Z,29.08
2024-02-08T22:12:06.207Z,28.68
2024-02-08T22:14:40.612Z,28.82
2024-02-08T22:17:10.796Z,28.98
2024-02-08T22:19:44.680Z,28.30
2024-02-08T22:22:15.160Z,28.91
2024-02-08T22:24:43.692Z,28.73
2024-02-08T22:27:12.206Z,28.73
2024-02-08T22:29:42.338Z,28.54
2024-02-08T22:32:12.730Z,28.22
2024-02-08T22:34:42.791Z,28.81
2024-02-08T22:37:11.781Z,28.83
2024-02-08T22:39:39.931Z,28.45
2024-02-08T22:42:08.308Z,29.01
2024-02-08T22:44:39.334Z,29.13
2024-02-08T22:47:08.980Z,28.98
2024-02-08T22:49:37.915Z,28.48
2024-02-08T22:52:07.230Z,28.47
2024-02-08T22:54:35.474Z,28.42
2024-02-08T22:57:04.910Z,28.98
2024-02-08T22:59:33.056Z,28.44
2024-02-08T23:02:08.200Z,28.30
2024-02-08T23:04:39.134Z,28.16
2024-02-08T23:07:08.961Z,28.27
2024-02-08T23:09:37.359Z,28.92
2024-02-08T23:12:07.096Z,28.89
2024-02-08T23:14:35.232Z,28.25
2024-02-08T23:17:04.595Z,28.28
2024-02-08T23:19:34.065Z,28.51
2024-02-08T23:22:07.198Z,28.32
2024-02-08T23:24:41.988Z,28.93
2024-02-08T23:27:11.097Z,28.15
2024-02-08T23:29:39.250Z,28.27
2024-02-08T23:32:09.975Z,29.03
2024-02-08T23:34:41.882Z,28.15
2024-02-08T23:37:13.026Z,28.70
2024-02-08T23:39:41.414Z,28.53
2024-02-08T23:42:09.746Z,28.54
2024-02-08T23:44:39.672Z,28.13
2024-02-08T23:47:08.224Z,28.20
2024-02-08T23:49:36.341Z,28.27
2024-02-08T23:52:04.790Z,28.50
2024-02-08T23:54:34.327Z,28.37
2024-02-08T23:57:05.819Z,28.80
2024-02-08T23:59:34.817Z,28.56
